createdAt,value
2018-03-16T00:01:28.410Z,7
2018-03-16T00:11:28.660Z,6
2018-03-16T00:21:27.964Z,6
2018-03-16T00:31:28.882Z,6
2018-03-16T00:41:29.081Z,6
2018-03-16T00:51:27.602Z,6
2018-03-16T01:01:27.174Z,6
2018-03-16T01:11:28.288Z,6
2018-03-16T01:21:26.928Z,6
2018-03-16T01:31:27.655Z,6
2018-03-16T01:41:28.638Z,6
2018-03-16T01:51:27.332Z,6
2018-03-16T02:01:26.822Z,6
2018-03-16T02:11:27.567Z,6
2018-03-16T02:21:27.270Z,6
2018-03-16T02:31:27.891Z,6
2018-03-16T02:41:28.391Z,6
2018-03-16T02:51:26.851Z,6
2018-03-16T03:01:28.908Z,6
2018-03-16T03:11:30.978Z,6
2018-03-16T03:21:27.592Z,7
2018-03-16T03:31:27.362Z,6
2018-03-16T03:41:27.968Z,6
2018-03-16T03:51:28.303Z,6
2018-03-16T04:01:32.207Z,6
2018-03-16T04:11:33.171Z,6
2018-03-16T04:21:32.651Z,6
2018-03-16T04:31:32.640Z,6
2018-03-16T04:41:32.634Z,7
2018-03-16T04:51:33.825Z,6
2018-03-16T05:01:28.085Z,6
2018-03-16T05:11:29.028Z,6
2018-03-16T05:21:28.498Z,6
2018-03-16T05:31:28.254Z,6
2018-03-16T05:41:28.010Z,6
2018-03-16T05:51:30.285Z,6
2018-03-16T06:01:29.868Z,6
2018-03-16T06:11:29.086Z,6
2018-03-16T06:21:29.322Z,6
2018-03-16T06:31:27.348Z,6
2018-03-16T06:41:27.197Z,6
2018-03-16T06:51:29.984Z,6
2018-03-16T07:01:29.884Z,6
2018-03-16T07:11:28.374Z,7
2018-03-16T07:21:29.801Z,7
2018-03-16T07:31:27.195Z,7
2018-03-16T07:41:28.755Z,7
2018-03-16T07:51:30.156Z,7
2018-03-16T08:01:27.676Z,6
2018-03-16T08:11:30.460Z,7
2018-03-16T08:21:27.516Z,7
2018-03-16T08:31:27.358Z,7
2018-03-16T08:41:29.640Z,7
2018-03-16T08:51:28.087Z,7
2018-03-16T09:01:31.726Z,7
2018-03-16T09:11:27.808Z,7
2018-03-16T09:21:27.580Z,7
2018-03-16T09:31:29.891Z,7
2018-03-16T09:41:27.340Z,7
2018-03-16T09:51:29.241Z,8
2018-03-16T10:01:28.569Z,8
2018-03-16T10:11:29.369Z,8
2018-03-16T10:21:27.060Z,8
2018-03-16T10:31:28.473Z,8
2018-03-16T10:41:27.356Z,8
2018-03-16T10:51:26.863Z,8
2018-03-16T11:01:29.788Z,8
2018-03-16T11:11:29.675Z,8
2018-03-16T11:21:28.412Z,8
2018-03-16T11:31:28.483Z,8
2018-03-16T11:41:29.680Z,8
2018-03-16T11:51:27.311Z,8
2018-03-16T12:01:28.114Z,8
2018-03-16T12:11:28.245Z,8
2018-03-16T12:21:27.273Z,9
2018-03-16T12:31:30.362Z,8
2018-03-16T12:41:26.800Z,8
2018-03-16T12:51:27.809Z,9
2018-03-16T13:01:28.804Z,9
2018-03-16T13:11:29.089Z,9
2018-03-16T13:21:28.702Z,9
2018-03-16T13:31:27.547Z,9
2018-03-16T13:41:27.075Z,9
2018-03-16T13:51:28.175Z,9
2018-03-16T14:01:27.670Z,9
2018-03-16T14:11:27.693Z,9
2018-03-16T14:21:27.344Z,9
2018-03-16T14:31:27.112Z,9
2018-03-16T14:41:31.283Z,9
2018-03-16T14:51:27.747Z,9
2018-03-16T15:01:27.195Z,9
2018-03-16T15:11:27.896Z,9
2018-03-16T15:21:30.216Z,9
2018-03-16T15:31:27.652Z,9
2018-03-16T15:41:28.077Z,9
2018-03-16T15:51:27.147Z,9
2018-03-16T16:01:29.967Z,7
2018-03-16T16:11:31.567Z,7
2018-03-16T16:21:32.769Z,7
2018-03-16T16:31:28.967Z,7
2018-03-16T16:41:27.368Z,7
2018-03-16T16:51:26.946Z,6
2018-03-16T17:01:30.580Z,6
2018-03-16T17:11:28.781Z,6
2018-03-16T17:21:28.658Z,6
2018-03-16T17:31:28.605Z,6
2018-03-16T17:41:28.562Z,6
2018-03-16T17:51:28.464Z,5
2018-03-16T18:01:27.195Z,5
2018-03-16T18:11:28.859Z,5
2018-03-16T18:21:30.727Z,4
2018-03-16T18:31:27.254Z,5
2018-03-16T18:41:29.375Z,5
2018-03-16T18:51:28.351Z,5
2018-03-16T19:01:29.065Z,5
2018-03-16T19:11:29.803Z,4
2018-03-16T19:21:27.518Z,4
2018-03-16T19:31:28.022Z,4
2018-03-16T19:41:27.601Z,4
2018-03-16T19:51:28.608Z,4
2018-03-16T20:01:28.927Z,4
2018-03-16T20:11:27.540Z,3
2018-03-16T20:21:28.620Z,3
2018-03-16T20:31:28.276Z,3
2018-03-16T20:41:28.960Z,3
2018-03-16T20:51:28.126Z,3
2018-03-16T21:01:28.301Z,3
2018-03-16T21:11:28.252Z,3
2018-03-16T21:21:27.208Z,3
2018-03-16T21:31:27.943Z,3
2018-03-16T21:41:28.821Z,3
2018-03-16T21:51:30.976Z,3
2018-03-16T22:01:27.911Z,3
2018-03-16T22:11:28.458Z,3
2018-03-16T22:21:28.040Z,3
2018-03-16T22:31:32.550Z,3
2018-03-16T22:41:33.451Z,2
2018-03-16T22:51:29.662Z,3
2018-03-16T23:01:27.155Z,2
2018-03-16T23:11:28.103Z,2
2018-03-16T23:21:27.607Z,2
2018-03-16T23:31:27.961Z,2
2018-03-16T23:41:28.449Z,3
2018-03-16T23:51:27.708Z,2
